sensor_id;sensor_type;location;lat;lon;timestamp;temperature;humidity
23609;DHT22;11982;50.810;4.442;2024-01-06T00:00:35;6.70;99.90
23609;DHT22;11982;50.810;4.442;2024-01-06T00:03:01;6.70;99.90
23609;DHT22;11982;50.810;4.442;2024-01-06T00:05:26;6.70;99.90
23609;DHT22;11982;50.810;4.442;2024-01-06T00:07:52;6.70;99.90
23609;DHT22;11982;50.810;4.442;2024-01-06T00:10:18;6.80;99.90
23609;DHT22;11982;50.810;4.442;2024-01-06T00:12:44;6.80;99.90
23609;DHT22;11982;50.810;4.442;2024-01-06T00:15:10;6.70;99.90
23609;DHT22;11982;50.810;4.442;2024-01-06T00:17:38;6.70;99.90
23609;DHT22;11982;50.810;4.442;2024-01-06T00:20:05;6.70;99.90
23609;DHT22;11982;50.810;4.442;2024-01-06T00:22:31;6.70;99.90
23609;DHT22;11982;50.810;4.442;2024-01-06T00:24:56;6.70;99.90
23609;DHT22;11982;50.810;4.442;2024-01-06T00:27:22;6.70;99.90
23609;DHT22;11982;50.810;4.442;2024-01-06T00:29:48;6.70;99.90
23609;DHT22;11982;50.810;4.442;2024-01-06T00:32:13;6.70;99.90
23609;DHT22;11982;50.810;4.442;2024-01-06T00:34:39;6.70;99.90
23609;DHT22;11982;50.810;4.442;2024-01-06T00:37:05;6.70;99.90
23609;DHT22;11982;50.810;4.442;2024-01-06T00:39:31;6.70;99.90
23609;DHT22;11982;50.810;4.442;2024-01-06T00:41:56;6.70;99.90
23609;DHT22;11982;50.810;4.442;2024-01-06T00:44:22;6.70;99.90
23609;DHT22;11982;50.810;4.442;2024-01-06T00:46:48;6.70;99.90
23609;DHT22;11982;50.810;4.442;2024-01-06T00:49:13;6.80;99.90
23609;DHT22;11982;50.810;4.442;2024-01-06T00:51:39;6.80;99.90
23609;DHT22;11982;50.810;4.442;2024-01-06T00:54:05;6.70;99.90
23609;DHT22;11982;50.810;4.442;2024-01-06T00:56:30;6.70;99.90
23609;DHT22;11982;50.810;4.442;2024-01-06T00:58:56;6.70;99.90
23609;DHT22;11982;50.810;4.442;2024-01-06T01:01:22;6.70;99.90
23609;DHT22;11982;50.810;4.442;2024-01-06T01:03:47;6.70;99.90
23609;DHT22;11982;50.810;4.442;2024-01-06T01:06:13;6.70;99.90
23609;DHT22;11982;50.810;4.442;2024-01-06T01:08:38;6.70;99.90
23609;DHT22;11982;50.810;4.442;2024-01-06T01:11:04;6.80;99.90
23609;DHT22;11982;50.810;4.442;2024-01-06T01:13:30;6.70;99.90
23609;DHT22;11982;50.810;4.442;2024-01-06T01:15:56;6.70;99.90
23609;DHT22;11982;50.810;4.442;2024-01-06T01:18:22;6.70;99.90
23609;DHT22;11982;50.810;4.442;2024-01-06T01:20:47;6.70;99.90
23609;DHT22;11982;50.810;4.442;2024-01-06T01:23:13;6.60;99.90
23609;DHT22;11982;50.810;4.442;2024-01-06T01:25:39;6.60;99.90
23609;DHT22;11982;50.810;4.442;2024-01-06T01:28:04;6.50;99.90
23609;DHT22;11982;50.810;4.442;2024-01-06T01:30:30;6.60;99.90
23609;DHT22;11982;50.810;4.442;2024-01-06T01:32:58;6.60;99.90
23609;DHT22;11982;50.810;4.442;2024-01-06T01:35:23;6.50;99.90
23609;DHT22;11982;50.810;4.442;2024-01-06T01:37:49;6.50;99.90
23609;DHT22;11982;50.810;4.442;2024-01-06T01:40:15;6.60;99.90
23609;DHT22;11982;50.810;4.442;2024-01-06T01:42:42;6.50;99.90
23609;DHT22;11982;50.810;4.442;2024-01-06T01:45:08;6.50;99.90
23609;DHT22;11982;50.810;4.442;2024-01-06T01:47:34;6.50;99.90
23609;DHT22;11982;50.810;4.442;2024-01-06T01:50:01;6.50;99.90
23609;DHT22;11982;50.810;4.442;2024-01-06T01:52:27;6.50;99.90
23609;DHT22;11982;50.810;4.442;2024-01-06T01:54:53;6.50;99.90
23609;DHT22;11982;50.810;4.442;2024-01-06T01:57:20;6.50;99.90
23609;DHT22;11982;50.810;4.442;2024-01-06T01:59:49;6.50;99.90
23609;DHT22;11982;50.810;4.442;2024-01-06T02:02:15;6.50;99.90
23609;DHT22;11982;50.810;4.442;2024-01-06T02:04:41;6.50;99.90
23609;DHT22;11982;50.810;4.442;2024-01-06T02:07:07;6.60;99.90
23609;DHT22;11982;50.810;4.442;2024-01-06T02:09:33;6.50;99.90
23609;DHT22;11982;50.810;4.442;2024-01-06T02:11:59;6.50;99.90
23609;DHT22;11982;50.810;4.442;2024-01-06T02:14:24;6.50;99.90
23609;DHT22;11982;50.810;4.442;2024-01-06T02:16:50;6.60;99.90
23609;DHT22;11982;50.810;4.442;2024-01-06T02:19:16;6.50;99.90
23609;DHT22;11982;50.810;4.442;2024-01-06T02:21:44;6.50;99.90
23609;DHT22;11982;50.810;4.442;2024-01-06T02:24:10;6.50;99.90
23609;DHT22;11982;50.810;4.442;2024-01-06T02:26:36;6.50;99.90
23609;DHT22;11982;50.810;4.442;2024-01-06T02:29:01;6.50;99.90
23609;DHT22;11982;50.810;4.442;2024-01-06T02:31:27;6.40;99.90
23609;DHT22;11982;50.810;4.442;2024-01-06T02:33:53;6.50;99.90
23609;DHT22;11982;50.810;4.442;2024-01-06T02:36:19;6.50;99.90
23609;DHT22;11982;50.810;4.442;2024-01-06T02:38:44;6.60;99.90
23609;DHT22;11982;50.810;4.442;2024-01-06T02:41:10;6.70;99.90
23609;DHT22;11982;50.810;4.442;2024-01-06T02:43:36;6.80;99.90
23609;DHT22;11982;50.810;4.442;2024-01-06T02:46:02;6.80;99.90
23609;DHT22;11982;50.810;4.442;2024-01-06T02:48:27;6.70;99.90
23609;DHT22;11982;50.810;4.442;2024-01-06T02:50:56;6.70;99.90
23609;DHT22;11982;50.810;4.442;2024-01-06T02:53:22;6.70;99.90
23609;DHT22;11982;50.810;4.442;2024-01-06T02:55:47;6.80;99.90
23609;DHT22;11982;50.810;4.442;2024-01-06T02:58:13;6.70;99.90
23609;DHT22;11982;50.810;4.442;2024-01-06T03:00:39;6.70;99.90
23609;DHT22;11982;50.810;4.442;2024-01-06T03:03:04;6.70;99.90
23609;DHT22;11982;50.810;4.442;2024-01-06T03:05:30;6.70;99.90
23609;DHT22;11982;50.810;4.442;2024-01-06T03:07:56;6.80;99.90
23609;DHT22;11982;50.810;4.442;2024-01-06T03:10:22;6.70;99.90
23609;DHT22;11982;50.810;4.442;2024-01-06T03:12:48;6.80;99.90
23609;DHT22;11982;50.810;4.442;2024-01-06T03:15:14;6.70;99.90
23609;DHT22;11982;50.810;4.442;2024-01-06T03:17:40;6.80;99.90
23609;DHT22;11982;50.810;4.442;2024-01-06T03:20:06;6.80;99.90
23609;DHT22;11982;50.810;4.442;2024-01-06T03:22:32;6.80;99.90
23609;DHT22;11982;50.810;4.442;2024-01-06T03:24:58;6.80;99.90
23609;DHT22;11982;50.810;4.442;2024-01-06T03:27:24;6.80;99.90
23609;DHT22;11982;50.810;4.442;2024-01-06T03:29:50;6.90;99.90
23609;DHT22;11982;50.810;4.442;2024-01-06T03:32:15;6.80;99.90
23609;DHT22;11982;50.810;4.442;2024-01-06T03:34:41;6.80;99.90
23609;DHT22;11982;50.810;4.442;2024-01-06T03:37:07;6.80;99.90
23609;DHT22;11982;50.810;4.442;2024-01-06T03:39:32;6.90;99.90
23609;DHT22;11982;50.810;4.442;2024-01-06T03:42:00;6.80;99.90
23609;DHT22;11982;50.810;4.442;2024-01-06T03:44:26;6.80;99.90
23609;DHT22;11982;50.810;4.442;2024-01-06T03:46:56;6.90;99.90
23609;DHT22;11982;50.810;4.442;2024-01-06T03:49:23;6.80;99.90
23609;DHT22;11982;50.810;4.442;2024-01-06T03:51:49;6.80;99.90
23609;DHT22;11982;50.810;4.442;2024-01-06T03:54:15;7.00;99.90
23609;DHT22;11982;50.810;4.442;2024-01-06T03:56:40;6.90;99.90
23609;DHT22;11982;50.810;4.442;2024-01-06T03:59:06;6.80;99.90
23609;DHT22;11982;50.810;4.442;2024-01-06T04:01:32;6.80;99.90
23609;DHT22;11982;50.810;4.442;2024-01-06T04:04:02;6.90;99.90
23609;DHT22;11982;50.810;4.442;2024-01-06T04:06:28;6.90;99.90
23609;DHT22;11982;50.810;4.442;2024-01-06T04:08:53;6.80;99.90
23609;DHT22;11982;50.810;4.442;2024-01-06T04:11:21;6.80;99.90
23609;DHT22;11982;50.810;4.442;2024-01-06T04:13:47;6.70;99.90
23609;DHT22;11982;50.810;4.442;2024-01-06T04:16:12;6.80;99.90
23609;DHT22;11982;50.810;4.442;2024-01-06T04:18:38;6.80;99.90
23609;DHT22;11982;50.810;4.442;2024-01-06T04:21:04;6.70;99.90
23609;DHT22;11982;50.810;4.442;2024-01-06T04:23:30;6.90;99.90
23609;DHT22;11982;50.810;4.442;2024-01-06T04:25:56;6.90;99.90
23609;DHT22;11982;50.810;4.442;2024-01-06T04:28:22;6.90;99.90
23609;DHT22;11982;50.810;4.442;2024-01-06T04:30:48;6.80;99.90
23609;DHT22;11982;50.810;4.442;2024-01-06T04:33:14;6.90;99.90
23609;DHT22;11982;50.810;4.442;2024-01-06T04:35:39;6.90;99.90
23609;DHT22;11982;50.810;4.442;2024-01-06T04:38:05;6.90;99.90
23609;DHT22;11982;50.810;4.442;2024-01-06T04:40:31;6.80;99.90
23609;DHT22;11982;50.810;4.442;2024-01-06T04:42:56;6.80;99.90
23609;DHT22;11982;50.810;4.442;2024-01-06T04:45:22;6.80;99.90
23609;DHT22;11982;50.810;4.442;2024-01-06T04:47:50;6.80;99.90
23609;DHT22;11982;50.810;4.442;2024-01-06T04:50:16;6.90;99.90
23609;DHT22;11982;50.810;4.442;2024-01-06T04:52:42;6.70;99.90
23609;DHT22;11982;50.810;4.442;2024-01-06T04:55:09;6.70;99.90
23609;DHT22;11982;50.810;4.442;2024-01-06T04:57:36;6.70;99.90
23609;DHT22;11982;50.810;4.442;2024-01-06T05:00:02;6.70;99.90
23609;DHT22;11982;50.810;4.442;2024-01-06T05:02:28;6.60;99.90
23609;DHT22;11982;50.810;4.442;2024-01-06T05:04:54;6.60;99.90
23609;DHT22;11982;50.810;4.442;2024-01-06T05:07:20;6.80;99.90
23609;DHT22;11982;50.810;4.442;2024-01-06T05:09:45;6.80;99.90
23609;DHT22;11982;50.810;4.442;2024-01-06T05:12:11;6.80;99.90
23609;DHT22;11982;50.810;4.442;2024-01-06T05:14:37;6.80;99.90
23609;DHT22;11982;50.810;4.442;2024-01-06T05:17:02;6.80;99.90
23609;DHT22;11982;50.810;4.442;2024-01-06T05:19:28;6.80;99.90
23609;DHT22;11982;50.810;4.442;2024-01-06T05:21:54;6.90;99.90
23609;DHT22;11982;50.810;4.442;2024-01-06T05:24:20;6.80;99.90
23609;DHT22;11982;50.810;4.442;2024-01-06T05:26:45;6.80;99.90
23609;DHT22;11982;50.810;4.442;2024-01-06T05:29:11;6.80;99.90
23609;DHT22;11982;50.810;4.442;2024-01-06T05:31:37;6.70;99.90
23609;DHT22;11982;50.810;4.442;2024-01-06T05:34:02;6.70;99.90
23609;DHT22;11982;50.810;4.442;2024-01-06T05:36:28;6.70;99.90
23609;DHT22;11982;50.810;4.442;2024-01-06T05:38:54;6.70;99.90
23609;DHT22;11982;50.810;4.442;2024-01-06T05:41:19;6.60;99.90
23609;DHT22;11982;50.810;4.442;2024-01-06T05:43:45;6.60;99.90
23609;DHT22;11982;50.810;4.442;2024-01-06T05:46:11;6.50;99.90
23609;DHT22;11982;50.810;4.442;2024-01-06T05:48:37;6.40;99.90
23609;DHT22;11982;50.810;4.442;2024-01-06T05:51:05;6.40;99.90
23609;DHT22;11982;50.810;4.442;2024-01-06T05:53:31;6.40;99.90
23609;DHT22;11982;50.810;4.442;2024-01-06T05:55:57;6.30;99.90
23609;DHT22;11982;50.810;4.442;2024-01-06T05:58:23;6.40;99.90
23609;DHT22;11982;50.810;4.442;2024-01-06T06:00:49;6.40;99.90
23609;DHT22;11982;50.810;4.442;2024-01-06T06:03:15;6.40;99.90
23609;DHT22;11982;50.810;4.442;2024-01-06T06:05:40;6.40;99.90
23609;DHT22;11982;50.810;4.442;2024-01-06T06:08:06;6.40;99.90
23609;DHT22;11982;50.810;4.442;2024-01-06T06:10:31;6.40;99.90
23609;DHT22;11982;50.810;4.442;2024-01-06T06:13:07;6.40;99.90
23609;DHT22;11982;50.810;4.442;2024-01-06T06:15:36;6.40;99.90
23609;DHT22;11982;50.810;4.442;2024-01-06T06:18:02;6.40;99.90
23609;DHT22;11982;50.810;4.442;2024-01-06T06:20:27;6.20;99.90
23609;DHT22;11982;50.810;4.442;2024-01-06T06:22:53;6.10;99.90
23609;DHT22;11982;50.810;4.442;2024-01-06T06:25:19;5.90;99.90
23609;DHT22;11982;50.810;4.442;2024-01-06T06:27:44;6.00;99.90
23609;DHT22;11982;50.810;4.442;2024-01-06T06:30:10;5.90;99.90
23609;DHT22;11982;50.810;4.442;2024-01-06T06:32:36;5.80;99.90
23609;DHT22;11982;50.810;4.442;2024-01-06T06:35:02;5.90;99.90
23609;DHT22;11982;50.810;4.442;2024-01-06T06:37:28;5.90;99.90
23609;DHT22;11982;50.810;4.442;2024-01-06T06:39:53;5.80;99.90
23609;DHT22;11982;50.810;4.442;2024-01-06T06:42:19;5.80;99.90
23609;DHT22;11982;50.810;4.442;2024-01-06T06:44:45;5.80;99.90
23609;DHT22;11982;50.810;4.442;2024-01-06T06:47:10;5.70;99.90
23609;DHT22;11982;50.810;4.442;2024-01-06T06:49:36;5.70;99.90
23609;DHT22;11982;50.810;4.442;2024-01-06T06:52:02;5.70;99.90
23609;DHT22;11982;50.810;4.442;2024-01-06T06:54:29;5.70;99.90
23609;DHT22;11982;50.810;4.442;2024-01-06T06:56:54;5.70;99.90
23609;DHT22;11982;50.810;4.442;2024-01-06T06:59:20;5.80;99.90
23609;DHT22;11982;50.810;4.442;2024-01-06T07:01:46;5.90;99.90
23609;DHT22;11982;50.810;4.442;2024-01-06T07:04:11;5.80;99.90
23609;DHT22;11982;50.810;4.442;2024-01-06T07:06:37;5.90;99.90
23609;DHT22;11982;50.810;4.442;2024-01-06T07:09:03;5.90;99.90
23609;DHT22;11982;50.810;4.442;2024-01-06T07:11:30;5.80;99.90
23609;DHT22;11982;50.810;4.442;2024-01-06T07:13:56;5.70;99.90
23609;DHT22;11982;50.810;4.442;2024-01-06T07:16:21;5.60;99.90
23609;DHT22;11982;50.810;4.442;2024-01-06T07:18:47;5.50;99.90
23609;DHT22;11982;50.810;4.442;2024-01-06T07:21:13;5.60;99.90
23609;DHT22;11982;50.810;4.442;2024-01-06T07:23:39;5.70;99.90
23609;DHT22;11982;50.810;4.442;2024-01-06T07:26:05;5.70;99.90
23609;DHT22;11982;50.810;4.442;2024-01-06T07:28:30;5.80;99.90
23609;DHT22;11982;50.810;4.442;2024-01-06T07:30:56;5.80;99.90
23609;DHT22;11982;50.810;4.442;2024-01-06T07:33:22;5.80;99.90
23609;DHT22;11982;50.810;4.442;2024-01-06T07:35:47;5.60;99.90
23609;DHT22;11982;50.810;4.442;2024-01-06T07:38:13;5.50;99.90
23609;DHT22;11982;50.810;4.442;2024-01-06T07:40:39;5.40;99.90
23609;DHT22;11982;50.810;4.442;2024-01-06T07:43:05;5.40;99.90
23609;DHT22;11982;50.810;4.442;2024-01-06T07:45:31;5.50;99.90
23609;DHT22;11982;50.810;4.442;2024-01-06T07:48:00;5.60;99.90
23609;DHT22;11982;50.810;4.442;2024-01-06T07:50:26;5.50;99.90
23609;DHT22;11982;50.810;4.442;2024-01-06T07:52:53;5.50;99.90
23609;DHT22;11982;50.810;4.442;2024-01-06T07:55:19;5.40;99.90
23609;DHT22;11982;50.810;4.442;2024-01-06T07:57:45;5.40;99.90
23609;DHT22;11982;50.810;4.442;2024-01-06T08:00:11;5.50;99.90
23609;DHT22;11982;50.810;4.442;2024-01-06T08:02:41;5.40;99.90
23609;DHT22;11982;50.810;4.442;2024-01-06T08:05:07;5.50;99.90
23609;DHT22;11982;50.810;4.442;2024-01-06T08:07:33;5.50;99.90
23609;DHT22;11982;50.810;4.442;2024-01-06T08:09:58;5.50;99.90
23609;DHT22;11982;50.810;4.442;2024-01-06T08:12:24;5.50;99.90
23609;DHT22;11982;50.810;4.442;2024-01-06T08:14:50;5.50;99.90
23609;DHT22;11982;50.810;4.442;2024-01-06T08:17:15;5.70;99.90
23609;DHT22;11982;50.810;4.442;2024-01-06T08:19:41;5.70;99.90
23609;DHT22;11982;50.810;4.442;2024-01-06T08:22:07;5.70;99.90
23609;DHT22;11982;50.810;4.442;2024-01-06T08:24:33;5.70;99.90
23609;DHT22;11982;50.810;4.442;2024-01-06T08:26:59;5.80;99.90
23609;DHT22;11982;50.810;4.442;2024-01-06T08:29:25;5.70;99.90
23609;DHT22;11982;50.810;4.442;2024-01-06T08:31:50;5.80;99.90
23609;DHT22;11982;50.810;4.442;2024-01-06T08:34:18;5.70;99.90
23609;DHT22;11982;50.810;4.442;2024-01-06T08:36:44;5.70;99.90
23609;DHT22;11982;50.810;4.442;2024-01-06T08:39:09;5.70;99.90
23609;DHT22;11982;50.810;4.442;2024-01-06T08:41:35;5.80;99.90
23609;DHT22;11982;50.810;4.442;2024-01-06T08:44:01;5.70;99.90
23609;DHT22;11982;50.810;4.442;2024-01-06T08:46:27;5.90;99.90
23609;DHT22;11982;50.810;4.442;2024-01-06T08:48:52;5.70;99.90
23609;DHT22;11982;50.810;4.442;2024-01-06T08:51:18;5.60;99.90
23609;DHT22;11982;50.810;4.442;2024-01-06T08:53:46;5.60;99.90
23609;DHT22;11982;50.810;4.442;2024-01-06T08:56:11;5.60;99.90
23609;DHT22;11982;50.810;4.442;2024-01-06T08:58:37;5.50;99.90
23609;DHT22;11982;50.810;4.442;2024-01-06T09:01:03;5.50;99.90
23609;DHT22;11982;50.810;4.442;2024-01-06T09:03:28;5.50;99.90
23609;DHT22;11982;50.810;4.442;2024-01-06T09:05:57;5.40;99.90
23609;DHT22;11982;50.810;4.442;2024-01-06T09:08:25;5.40;99.90
23609;DHT22;11982;50.810;4.442;2024-01-06T09:10:51;5.40;99.90
23609;DHT22;11982;50.810;4.442;2024-01-06T09:13:21;5.40;99.90
23609;DHT22;11982;50.810;4.442;2024-01-06T09:15:47;5.30;99.90
23609;DHT22;11982;50.810;4.442;2024-01-06T09:18:13;5.40;99.90
23609;DHT22;11982;50.810;4.442;2024-01-06T09:20:38;5.40;99.90
23609;DHT22;11982;50.810;4.442;2024-01-06T09:23:04;5.30;99.90
23609;DHT22;11982;50.810;4.442;2024-01-06T09:25:30;5.30;99.90
23609;DHT22;11982;50.810;4.442;2024-01-06T09:27:55;5.30;99.90
23609;DHT22;11982;50.810;4.442;2024-01-06T09:30:21;5.30;99.90
23609;DHT22;11982;50.810;4.442;2024-01-06T09:32:47;5.30;99.90
23609;DHT22;11982;50.810;4.442;2024-01-06T09:35:13;5.30;99.90
23609;DHT22;11982;50.810;4.442;2024-01-06T09:37:39;5.30;99.90
23609;DHT22;11982;50.810;4.442;2024-01-06T09:40:07;5.40;99.90
23609;DHT22;11982;50.810;4.442;2024-01-06T09:42:33;5.40;99.90
23609;DHT22;11982;50.810;4.442;2024-01-06T09:44:59;5.40;99.90
23609;DHT22;11982;50.810;4.442;2024-01-06T09:47:27;5.50;99.90
23609;DHT22;11982;50.810;4.442;2024-01-06T09:49:55;5.50;99.90
23609;DHT22;11982;50.810;4.442;2024-01-06T09:52:22;5.50;99.90
23609;DHT22;11982;50.810;4.442;2024-01-06T09:54:53;5.30;99.90
23609;DHT22;11982;50.810;4.442;2024-01-06T09:57:20;5.20;99.90
23609;DHT22;11982;50.810;4.442;2024-01-06T09:59:46;5.20;99.90
23609;DHT22;11982;50.810;4.442;2024-01-06T10:02:16;5.20;99.90
23609;DHT22;11982;50.810;4.442;2024-01-06T10:04:45;5.10;99.90
23609;DHT22;11982;50.810;4.442;2024-01-06T10:07:11;5.10;99.90
23609;DHT22;11982;50.810;4.442;2024-01-06T10:09:41;5.00;99.90
23609;DHT22;11982;50.810;4.442;2024-01-06T10:12:08;5.10;99.90
23609;DHT22;11982;50.810;4.442;2024-01-06T10:14:33;5.10;99.90
23609;DHT22;11982;50.810;4.442;2024-01-06T10:16:59;5.20;99.90
23609;DHT22;11982;50.810;4.442;2024-01-06T10:19:25;5.20;99.90
23609;DHT22;11982;50.810;4.442;2024-01-06T10:21:51;5.00;99.90
23609;DHT22;11982;50.810;4.442;2024-01-06T10:24:19;5.00;99.90
23609;DHT22;11982;50.810;4.442;2024-01-06T10:26:46;5.00;99.90
23609;DHT22;11982;50.810;4.442;2024-01-06T10:29:13;5.00;99.90
23609;DHT22;11982;50.810;4.442;2024-01-06T10:31:39;4.90;99.90
23609;DHT22;11982;50.810;4.442;2024-01-06T10:34:05;5.00;99.90
23609;DHT22;11982;50.810;4.442;2024-01-06T10:36:31;5.00;99.90
23609;DHT22;11982;50.810;4.442;2024-01-06T10:38:57;5.00;99.90
23609;DHT22;11982;50.810;4.442;2024-01-06T10:41:24;5.00;99.90
23609;DHT22;11982;50.810;4.442;2024-01-06T10:43:51;5.10;99.90
23609;DHT22;11982;50.810;4.442;2024-01-06T10:46:19;5.00;99.90
23609;DHT22;11982;50.810;4.442;2024-01-06T10:48:46;5.00;99.90
23609;DHT22;11982;50.810;4.442;2024-01-06T10:51:13;5.00;99.90
23609;DHT22;11982;50.810;4.442;2024-01-06T10:53:42;5.00;99.90
23609;DHT22;11982;50.810;4.442;2024-01-06T10:56:08;4.90;99.90
23609;DHT22;11982;50.810;4.442;2024-01-06T10:58:36;4.80;99.90
23609;DHT22;11982;50.810;4.442;2024-01-06T11:01:08;4.90;99.90
23609;DHT22;11982;50.810;4.442;2024-01-06T11:03:37;4.90;99.90
23609;DHT22;11982;50.810;4.442;2024-01-06T11:06:05;4.90;99.90
23609;DHT22;11982;50.810;4.442;2024-01-06T11:08:33;4.80;99.90
23609;DHT22;11982;50.810;4.442;2024-01-06T11:11:02;4.90;99.90
23609;DHT22;11982;50.810;4.442;2024-01-06T11:13:28;5.00;99.90
23609;DHT22;11982;50.810;4.442;2024-01-06T11:15:54;5.00;99.90
23609;DHT22;11982;50.810;4.442;2024-01-06T11:18:39;5.00;99.90
23609;DHT22;11982;50.810;4.442;2024-01-06T11:23:40;5.10;99.90
23609;DHT22;11982;50.810;4.442;2024-01-06T11:26:09;5.00;99.90
23609;DHT22;11982;50.810;4.442;2024-01-06T11:28:47;5.00;99.90
23609;DHT22;11982;50.810;4.442;2024-01-06T11:31:13;4.90;99.90
23609;DHT22;11982;50.810;4.442;2024-01-06T11:33:45;4.90;99.90
23609;DHT22;11982;50.810;4.442;2024-01-06T11:36:17;4.90;99.90
23609;DHT22;11982;50.810;4.442;2024-01-06T11:38:46;4.90;99.90
23609;DHT22;11982;50.810;4.442;2024-01-06T11:41:48;4.90;99.90
23609;DHT22;11982;50.810;4.442;2024-01-06T11:44:19;5.00;99.90
23609;DHT22;11982;50.810;4.442;2024-01-06T11:46:45;5.00;99.90
23609;DHT22;11982;50.810;4.442;2024-01-06T11:49:17;5.00;99.90
23609;DHT22;11982;50.810;4.442;2024-01-06T11:51:45;5.00;99.90
23609;DHT22;11982;50.810;4.442;2024-01-06T11:54:11;5.00;99.90
23609;DHT22;11982;50.810;4.442;2024-01-06T11:56:38;5.00;99.90
23609;DHT22;11982;50.810;4.442;2024-01-06T11:59:03;4.90;99.90
23609;DHT22;11982;50.810;4.442;2024-01-06T12:01:39;5.00;99.90
23609;DHT22;11982;50.810;4.442;2024-01-06T12:04:06;4.90;99.90
23609;DHT22;11982;50.810;4.442;2024-01-06T12:06:33;5.00;99.90
23609;DHT22;11982;50.810;4.442;2024-01-06T12:09:10;5.10;99.90
23609;DHT22;11982;50.810;4.442;2024-01-06T12:11:35;5.00;99.90
23609;DHT22;11982;50.810;4.442;2024-01-06T12:14:03;5.10;99.90
23609;DHT22;11982;50.810;4.442;2024-01-06T12:16:28;4.90;99.90
23609;DHT22;11982;50.810;4.442;2024-01-06T12:18:55;4.90;99.90
23609;DHT22;11982;50.810;4.442;2024-01-06T12:21:23;4.90;99.90
23609;DHT22;11982;50.810;4.442;2024-01-06T12:23:50;4.80;99.90
23609;DHT22;11982;50.810;4.442;2024-01-06T12:26:21;4.90;99.90
23609;DHT22;11982;50.810;4.442;2024-01-06T12:28:49;4.90;99.90
23609;DHT22;11982;50.810;4.442;2024-01-06T12:31:15;4.80;99.90
23609;DHT22;11982;50.810;4.442;2024-01-06T12:33:41;4.90;99.90
23609;DHT22;11982;50.810;4.442;2024-01-06T12:36:08;4.90;99.90
23609;DHT22;11982;50.810;4.442;2024-01-06T12:38:42;4.90;99.90
23609;DHT22;11982;50.810;4.442;2024-01-06T12:41:07;5.00;99.90
23609;DHT22;11982;50.810;4.442;2024-01-06T12:43:33;5.20;99.90
23609;DHT22;11982;50.810;4.442;2024-01-06T12:45:59;5.30;99.90
23609;DHT22;11982;50.810;4.442;2024-01-06T12:48:24;5.20;99.90
23609;DHT22;11982;50.810;4.442;2024-01-06T12:50:50;5.20;99.90
23609;DHT22;11982;50.810;4.442;2024-01-06T12:53:16;5.20;99.90
23609;DHT22;11982;50.810;4.442;2024-01-06T12:55:43;5.20;99.90
23609;DHT22;11982;50.810;4.442;2024-01-06T12:58:09;5.20;99.90
23609;DHT22;11982;50.810;4.442;2024-01-06T13:00:35;5.20;99.90
23609;DHT22;11982;50.810;4.442;2024-01-06T13:03:00;5.30;99.90
23609;DHT22;11982;50.810;4.442;2024-01-06T13:05:26;5.30;99.90
23609;DHT22;11982;50.810;4.442;2024-01-06T13:07:52;5.30;99.90
23609;DHT22;11982;50.810;4.442;2024-01-06T13:10:18;5.30;99.90
23609;DHT22;11982;50.810;4.442;2024-01-06T13:12:43;5.30;99.90
23609;DHT22;11982;50.810;4.442;2024-01-06T13:15:09;5.30;99.90
23609;DHT22;11982;50.810;4.442;2024-01-06T13:17:37;5.30;99.90
23609;DHT22;11982;50.810;4.442;2024-01-06T13:20:03;5.20;99.90
23609;DHT22;11982;50.810;4.442;2024-01-06T13:22:29;5.30;99.90
23609;DHT22;11982;50.810;4.442;2024-01-06T13:24:56;5.20;99.90
23609;DHT22;11982;50.810;4.442;2024-01-06T13:27:21;5.20;99.90
23609;DHT22;11982;50.810;4.442;2024-01-06T13:29:47;5.30;99.90
23609;DHT22;11982;50.810;4.442;2024-01-06T13:32:13;5.30;99.90
23609;DHT22;11982;50.810;4.442;2024-01-06T13:34:40;5.40;99.90
23609;DHT22;11982;50.810;4.442;2024-01-06T13:37:07;5.30;99.90
23609;DHT22;11982;50.810;4.442;2024-01-06T13:39:33;5.20;99.90
23609;DHT22;11982;50.810;4.442;2024-01-06T13:41:58;5.20;99.90
23609;DHT22;11982;50.810;4.442;2024-01-06T13:44:24;5.10;99.90
23609;DHT22;11982;50.810;4.442;2024-01-06T13:46:50;5.10;99.90
23609;DHT22;11982;50.810;4.442;2024-01-06T13:49:17;5.30;99.90
23609;DHT22;11982;50.810;4.442;2024-01-06T13:51:43;5.20;99.90
23609;DHT22;11982;50.810;4.442;2024-01-06T13:54:09;5.10;99.90
23609;DHT22;11982;50.810;4.442;2024-01-06T13:56:35;4.90;99.90
23609;DHT22;11982;50.810;4.442;2024-01-06T13:59:02;4.90;99.90
23609;DHT22;11982;50.810;4.442;2024-01-06T14:01:29;4.90;99.90
23609;DHT22;11982;50.810;4.442;2024-01-06T14:03:55;4.80;99.90
23609;DHT22;11982;50.810;4.442;2024-01-06T14:06:26;4.80;99.90
23609;DHT22;11982;50.810;4.442;2024-01-06T14:08:59;4.80;99.90
23609;DHT22;11982;50.810;4.442;2024-01-06T14:11:26;4.90;99.90
23609;DHT22;11982;50.810;4.442;2024-01-06T14:13:53;4.90;99.90
23609;DHT22;11982;50.810;4.442;2024-01-06T14:16:19;5.00;99.90
23609;DHT22;11982;50.810;4.442;2024-01-06T14:18:46;4.90;99.90
23609;DHT22;11982;50.810;4.442;2024-01-06T14:21:11;4.90;99.90
23609;DHT22;11982;50.810;4.442;2024-01-06T14:23:41;4.90;99.90
23609;DHT22;11982;50.810;4.442;2024-01-06T14:26:07;5.00;99.90
23609;DHT22;11982;50.810;4.442;2024-01-06T14:28:32;5.00;99.90
23609;DHT22;11982;50.810;4.442;2024-01-06T14:30:58;5.10;99.90
23609;DHT22;11982;50.810;4.442;2024-01-06T14:33:24;5.00;99.90
23609;DHT22;11982;50.810;4.442;2024-01-06T14:35:49;5.00;99.90
23609;DHT22;11982;50.810;4.442;2024-01-06T14:38:15;4.90;99.90
23609;DHT22;11982;50.810;4.442;2024-01-06T14:40:41;4.90;99.90
23609;DHT22;11982;50.810;4.442;2024-01-06T14:43:06;5.00;99.90
23609;DHT22;11982;50.810;4.442;2024-01-06T14:45:32;5.00;99.90
23609;DHT22;11982;50.810;4.442;2024-01-06T14:47:58;5.10;99.90
23609;DHT22;11982;50.810;4.442;2024-01-06T14:50:25;5.10;99.90
23609;DHT22;11982;50.810;4.442;2024-01-06T14:52:51;5.10;99.90
23609;DHT22;11982;50.810;4.442;2024-01-06T14:55:18;5.10;99.90
23609;DHT22;11982;50.810;4.442;2024-01-06T14:57:43;5.00;99.90
23609;DHT22;11982;50.810;4.442;2024-01-06T15:00:09;4.90;99.90
23609;DHT22;11982;50.810;4.442;2024-01-06T15:02:38;5.00;99.90
23609;DHT22;11982;50.810;4.442;2024-01-06T15:05:05;5.00;99.90
23609;DHT22;11982;50.810;4.442;2024-01-06T15:07:32;5.00;99.90
23609;DHT22;11982;50.810;4.442;2024-01-06T15:10:01;5.00;99.90
23609;DHT22;11982;50.810;4.442;2024-01-06T15:12:27;4.90;99.90
23609;DHT22;11982;50.810;4.442;2024-01-06T15:14:53;4.80;99.90
23609;DHT22;11982;50.810;4.442;2024-01-06T15:17:19;4.90;99.90
23609;DHT22;11982;50.810;4.442;2024-01-06T15:19:45;4.90;99.90
23609;DHT22;11982;50.810;4.442;2024-01-06T15:22:11;4.90;99.90
23609;DHT22;11982;50.810;4.442;2024-01-06T15:24:38;4.90;99.90
23609;DHT22;11982;50.810;4.442;2024-01-06T15:27:04;4.90;99.90
23609;DHT22;11982;50.810;4.442;2024-01-06T15:29:30;5.00;99.90
23609;DHT22;11982;50.810;4.442;2024-01-06T15:31:55;4.90;99.90
23609;DHT22;11982;50.810;4.442;2024-01-06T15:34:23;4.80;99.90
23609;DHT22;11982;50.810;4.442;2024-01-06T15:36:49;4.80;99.90
23609;DHT22;11982;50.810;4.442;2024-01-06T15:39:15;4.70;99.90
23609;DHT22;11982;50.810;4.442;2024-01-06T15:41:41;4.80;99.90